sensor_id;sensor_type;location;lat;lon;timestamp;pressure;altitude;pressure_sealevel;temperature;humidity
60212;BME280;46079;48.686;15.598;2023-05-09T00:00:21;100622.59;;;20.53;47.00
60212;BME280;46079;48.686;15.598;2023-05-09T00:02:47;100620.84;;;20.53;46.79
60212;BME280;46079;48.686;15.598;2023-05-09T00:05:13;100605.91;;;20.54;46.91
60212;BME280;46079;48.686;15.598;2023-05-09T00:07:39;100611.16;;;20.54;46.85
60212;BME280;46079;48.686;15.598;2023-05-09T00:10:05;100611.16;;;20.54;46.68
60212;BME280;46079;48.686;15.598;2023-05-09T00:12:30;100611.16;;;20.54;46.92
60212;BME280;46079;48.686;15.598;2023-05-09T00:14:56;100614.72;;;20.53;46.82
60212;BME280;46079;48.686;15.598;2023-05-09T00:17:22;100611.16;;;20.54;46.62
60212;BME280;46079;48.686;15.598;2023-05-09T00:19:48;100611.16;;;20.54;46.99
60212;BME280;46079;48.686;15.598;2023-05-09T00:22:15;100608.53;;;20.54;46.89
60212;BME280;46079;48.686;15.598;2023-05-09T00:24:41;100609.38;;;20.54;46.95
60212;BME280;46079;48.686;15.598;2023-05-09T00:27:07;100598.88;;;20.54;47.09
60212;BME280;46079;48.686;15.598;2023-05-09T00:29:32;100596.25;;;20.54;47.29
60212;BME280;46079;48.686;15.598;2023-05-09T00:31:57;100595.38;;;20.54;47.02
60212;BME280;46079;48.686;15.598;2023-05-09T00:34:23;100597.06;;;20.55;46.78
60212;BME280;46079;48.686;15.598;2023-05-09T00:36:48;100596.25;;;20.54;46.99
60212;BME280;46079;48.686;15.598;2023-05-09T00:39:14;100592.66;;;20.55;47.21
60212;BME280;46079;48.686;15.598;2023-05-09T00:41:41;100586.44;;;20.56;47.30
60212;BME280;46079;48.686;15.598;2023-05-09T00:44:07;100587.28;;;20.57;47.50
60212;BME280;46079;48.686;15.598;2023-05-09T00:46:33;100584.66;;;20.57;47.25
60212;BME280;46079;48.686;15.598;2023-05-09T00:48:58;100590.75;;;20.57;47.43
60212;BME280;46079;48.686;15.598;2023-05-09T00:51:24;100585.34;;;20.59;47.35
60212;BME280;46079;48.686;15.598;2023-05-09T00:53:50;100582.72;;;20.59;47.61
60212;BME280;46079;48.686;15.598;2023-05-09T00:56:16;100582.72;;;20.59;47.53
60212;BME280;46079;48.686;15.598;2023-05-09T00:58:41;100583.56;;;20.59;47.53
60212;BME280;46079;48.686;15.598;2023-05-09T01:01:07;100586.19;;;20.59;47.36
60212;BME280;46079;48.686;15.598;2023-05-09T01:03:33;100583.56;;;20.59;47.42
60212;BME280;46079;48.686;15.598;2023-05-09T01:06:05;100580.91;;;20.59;47.35
60212;BME280;46079;48.686;15.598;2023-05-09T01:08:53;100584.53;;;20.58;47.43
60212;BME280;46079;48.686;15.598;2023-05-09T01:11:30;100570.53;;;20.58;47.34
60212;BME280;46079;48.686;15.598;2023-05-09T01:17:22;100574.00;;;20.58;47.60
60212;BME280;46079;48.686;15.598;2023-05-09T01:20:11;100581.88;;;20.58;47.64
60212;BME280;46079;48.686;15.598;2023-05-09T01:22:46;100570.66;;;20.56;47.46
60212;BME280;46079;48.686;15.598;2023-05-09T01:26:00;100566.25;;;20.57;47.75
60212;BME280;46079;48.686;15.598;2023-05-09T01:28:33;100576.78;;;20.57;47.73
60212;BME280;46079;48.686;15.598;2023-05-09T01:30:59;100570.66;;;20.56;47.42
60212;BME280;46079;48.686;15.598;2023-05-09T01:33:25;100569.00;;;20.55;47.67
60212;BME280;46079;48.686;15.598;2023-05-09T01:35:57;100582.97;;;20.56;47.75
60212;BME280;46079;48.686;15.598;2023-05-09T01:38:24;100576.88;;;20.55;47.73
60212;BME280;46079;48.686;15.598;2023-05-09T01:40:52;100570.78;;;20.55;47.76
60212;BME280;46079;48.686;15.598;2023-05-09T01:43:18;100576.06;;;20.55;47.64
60212;BME280;46079;48.686;15.598;2023-05-09T01:45:47;100562.09;;;20.54;47.79
60212;BME280;46079;48.686;15.598;2023-05-09T01:48:13;100562.91;;;20.55;47.50
60212;BME280;46079;48.686;15.598;2023-05-09T01:50:40;100573.44;;;20.55;47.76
60212;BME280;46079;48.686;15.598;2023-05-09T01:53:07;100562.09;;;20.54;47.68
60212;BME280;46079;48.686;15.598;2023-05-09T01:55:35;100561.22;;;20.54;47.92
60212;BME280;46079;48.686;15.598;2023-05-09T01:58:03;100559.47;;;20.54;47.58
60212;BME280;46079;48.686;15.598;2023-05-09T02:00:32;100564.72;;;20.54;47.43
60212;BME280;46079;48.686;15.598;2023-05-09T02:02:58;100563.84;;;20.54;47.44
60212;BME280;46079;48.686;15.598;2023-05-09T02:05:26;100563.84;;;20.54;47.68
60212;BME280;46079;48.686;15.598;2023-05-09T02:07:54;100561.22;;;20.54;47.75
60212;BME280;46079;48.686;15.598;2023-05-09T02:10:21;100559.47;;;20.54;47.58
60212;BME280;46079;48.686;15.598;2023-05-09T02:12:50;100555.97;;;20.54;47.86
60212;BME280;46079;48.686;15.598;2023-05-09T02:15:15;100553.34;;;20.54;47.63
60212;BME280;46079;48.686;15.598;2023-05-09T02:17:41;100560.28;;;20.55;47.57
60212;BME280;46079;48.686;15.598;2023-05-09T02:20:07;100557.66;;;20.55;47.71
60212;BME280;46079;48.686;15.598;2023-05-09T02:22:34;100563.75;;;20.55;47.72
60212;BME280;46079;48.686;15.598;2023-05-09T02:25:01;100566.38;;;20.55;47.51
60212;BME280;46079;48.686;15.598;2023-05-09T02:27:30;100568.03;;;20.56;47.63
60212;BME280;46079;48.686;15.598;2023-05-09T02:29:57;100565.41;;;20.56;47.83
60212;BME280;46079;48.686;15.598;2023-05-09T02:32:30;100570.66;;;20.56;47.77
60212;BME280;46079;48.686;15.598;2023-05-09T02:34:57;100563.75;;;20.55;47.93
60212;BME280;46079;48.686;15.598;2023-05-09T02:37:23;100561.94;;;20.56;47.98
60212;BME280;46079;48.686;15.598;2023-05-09T02:39:49;100561.13;;;20.55;47.88
60212;BME280;46079;48.686;15.598;2023-05-09T02:42:20;100564.56;;;20.56;47.87
60212;BME280;46079;48.686;15.598;2023-05-09T02:44:46;100559.47;;;20.54;47.78
60212;BME280;46079;48.686;15.598;2023-05-09T02:47:12;100555.84;;;20.55;47.71
60212;BME280;46079;48.686;15.598;2023-05-09T02:49:37;100557.66;;;20.55;47.93
60212;BME280;46079;48.686;15.598;2023-05-09T02:52:03;100561.94;;;20.56;48.01
60212;BME280;46079;48.686;15.598;2023-05-09T02:54:28;100559.31;;;20.56;47.72
60212;BME280;46079;48.686;15.598;2023-05-09T02:56:54;100557.66;;;20.55;48.12
60212;BME280;46079;48.686;15.598;2023-05-09T02:59:19;100557.66;;;20.55;47.94
60212;BME280;46079;48.686;15.598;2023-05-09T03:01:45;100549.78;;;20.55;48.34
60212;BME280;46079;48.686;15.598;2023-05-09T03:04:11;100551.56;;;20.54;48.21
60212;BME280;46079;48.686;15.598;2023-05-09T03:06:36;100552.50;;;20.53;48.23
60212;BME280;46079;48.686;15.598;2023-05-09T03:09:02;100552.50;;;20.53;48.14
60212;BME280;46079;48.686;15.598;2023-05-09T03:11:27;100552.50;;;20.53;48.18
60212;BME280;46079;48.686;15.598;2023-05-09T03:13:54;100563.84;;;20.54;48.19
60212;BME280;46079;48.686;15.598;2023-05-09T03:16:19;100558.59;;;20.54;48.11
60212;BME280;46079;48.686;15.598;2023-05-09T03:18:44;100564.78;;;20.53;48.15
60212;BME280;46079;48.686;15.598;2023-05-09T03:21:10;100550.81;;;20.52;48.08
60212;BME280;46079;48.686;15.598;2023-05-09T03:23:37;100562.16;;;20.53;48.46
60212;BME280;46079;48.686;15.598;2023-05-09T03:26:02;100556.06;;;20.52;48.25
60212;BME280;46079;48.686;15.598;2023-05-09T03:28:28;100553.44;;;20.52;48.25
60212;BME280;46079;48.686;15.598;2023-05-09T03:30:53;100552.63;;;20.52;48.15
60212;BME280;46079;48.686;15.598;2023-05-09T03:33:19;100567.41;;;20.53;48.50
60212;BME280;46079;48.686;15.598;2023-05-09T03:35:45;100565.66;;;20.53;48.44
60212;BME280;46079;48.686;15.598;2023-05-09T03:38:10;100560.50;;;20.52;48.41
60212;BME280;46079;48.686;15.598;2023-05-09T03:40:36;100560.38;;;20.53;48.25
60212;BME280;46079;48.686;15.598;2023-05-09T03:43:01;100556.91;;;20.53;48.44
60212;BME280;46079;48.686;15.598;2023-05-09T03:45:27;100559.63;;;20.51;48.19
60212;BME280;46079;48.686;15.598;2023-05-09T03:47:52;100557.00;;;20.51;48.31
60212;BME280;46079;48.686;15.598;2023-05-09T03:50:17;100556.91;;;20.53;48.22
60212;BME280;46079;48.686;15.598;2023-05-09T03:52:43;100555.25;;;20.52;48.37
60212;BME280;46079;48.686;15.598;2023-05-09T03:55:08;100565.03;;;20.50;48.60
60212;BME280;46079;48.686;15.598;2023-05-09T03:57:34;100564.06;;;20.51;48.55
60212;BME280;46079;48.686;15.598;2023-05-09T04:00:00;100563.13;;;20.52;48.57
60212;BME280;46079;48.686;15.598;2023-05-09T04:02:26;100564.06;;;20.51;48.35
60212;BME280;46079;48.686;15.598;2023-05-09T04:04:51;100567.66;;;20.50;48.17
60212;BME280;46079;48.686;15.598;2023-05-09T04:07:17;100572.91;;;20.50;48.31
60212;BME280;46079;48.686;15.598;2023-05-09T04:09:43;100567.66;;;20.50;48.16
60212;BME280;46079;48.686;15.598;2023-05-09T04:12:09;100569.47;;;20.49;48.21
60212;BME280;46079;48.686;15.598;2023-05-09T04:14:34;100564.31;;;20.48;48.54
60212;BME280;46079;48.686;15.598;2023-05-09T04:17:00;100572.09;;;20.49;48.44
60212;BME280;46079;48.686;15.598;2023-05-09T04:19:25;100579.16;;;20.49;48.46
60212;BME280;46079;48.686;15.598;2023-05-09T04:21:51;100579.97;;;20.49;48.40
60212;BME280;46079;48.686;15.598;2023-05-09T04:24:16;100569.56;;;20.48;48.42
60212;BME280;46079;48.686;15.598;2023-05-09T04:26:41;100566.00;;;20.49;48.36
60212;BME280;46079;48.686;15.598;2023-05-09T04:29:07;100572.09;;;20.49;48.78
60212;BME280;46079;48.686;15.598;2023-05-09T04:31:32;100574.81;;;20.48;48.15
60212;BME280;46079;48.686;15.598;2023-05-09T04:33:58;100571.25;;;20.49;46.88
60212;BME280;46079;48.686;15.598;2023-05-09T04:36:23;100570.53;;;20.47;45.86
60212;BME280;46079;48.686;15.598;2023-05-09T04:38:49;100573.16;;;20.47;45.19
60212;BME280;46079;48.686;15.598;2023-05-09T04:41:14;100576.03;;;20.43;44.10
60212;BME280;46079;48.686;15.598;2023-05-09T04:43:40;100564.91;;;20.40;43.89
60212;BME280;46079;48.686;15.598;2023-05-09T04:46:06;100575.81;;;20.35;43.13
60212;BME280;46079;48.686;15.598;2023-05-09T04:48:42;100575.94;;;20.34;42.90
60212;BME280;46079;48.686;15.598;2023-05-09T04:51:07;100572.72;;;20.30;42.55
60212;BME280;46079;48.686;15.598;2023-05-09T04:53:32;100577.38;;;20.27;42.55
60212;BME280;46079;48.686;15.598;2023-05-09T04:55:58;100574.88;;;20.25;42.40
60212;BME280;46079;48.686;15.598;2023-05-09T04:58:24;100574.28;;;20.21;42.36
60212;BME280;46079;48.686;15.598;2023-05-09T05:00:51;100577.03;;;20.20;42.09
60212;BME280;46079;48.686;15.598;2023-05-09T05:03:17;100566.75;;;20.17;41.96
60212;BME280;46079;48.686;15.598;2023-05-09T05:05:42;100578.22;;;20.16;41.89
60212;BME280;46079;48.686;15.598;2023-05-09T05:08:08;100568.56;;;20.16;41.82
60212;BME280;46079;48.686;15.598;2023-05-09T05:10:33;100570.34;;;20.16;41.72
60212;BME280;46079;48.686;15.598;2023-05-09T05:12:58;100572.25;;;20.14;41.58
60212;BME280;46079;48.686;15.598;2023-05-09T05:15:24;100576.78;;;20.12;41.69
60212;BME280;46079;48.686;15.598;2023-05-09T05:17:51;100577.75;;;20.11;41.55
60212;BME280;46079;48.686;15.598;2023-05-09T05:20:16;100586.69;;;20.08;41.50
60212;BME280;46079;48.686;15.598;2023-05-09T05:22:42;100579.66;;;20.09;41.30
60212;BME280;46079;48.686;15.598;2023-05-09T05:25:07;100581.44;;;20.08;41.36
60212;BME280;46079;48.686;15.598;2023-05-09T05:27:33;100574.41;;;20.09;42.69
60212;BME280;46079;48.686;15.598;2023-05-09T05:29:58;100570.81;;;20.10;44.95
60212;BME280;46079;48.686;15.598;2023-05-09T05:32:24;100567.09;;;20.12;46.21
60212;BME280;46079;48.686;15.598;2023-05-09T05:34:49;100570.94;;;20.19;45.37
60212;BME280;46079;48.686;15.598;2023-05-09T05:37:14;100571.53;;;20.23;45.29
60212;BME280;46079;48.686;15.598;2023-05-09T05:39:40;100566.03;;;20.26;45.21
60212;BME280;46079;48.686;15.598;2023-05-09T05:42:05;100568.41;;;20.29;45.32
60212;BME280;46079;48.686;15.598;2023-05-09T05:44:31;100564.59;;;20.33;44.89
60212;BME280;46079;48.686;15.598;2023-05-09T05:46:56;100561.00;;;20.34;45.03
60212;BME280;46079;48.686;15.598;2023-05-09T05:49:21;100564.09;;;20.39;45.04
60212;BME280;46079;48.686;15.598;2023-05-09T05:51:49;100557.91;;;20.40;45.14
60212;BME280;46079;48.686;15.598;2023-05-09T05:54:15;100561.22;;;20.42;44.90
60212;BME280;46079;48.686;15.598;2023-05-09T05:56:41;100553.94;;;20.46;44.97
60212;BME280;46079;48.686;15.598;2023-05-09T05:59:06;100561.84;;;20.46;44.85
60212;BME280;46079;48.686;15.598;2023-05-09T06:01:34;100556.06;;;20.52;45.01
60212;BME280;46079;48.686;15.598;2023-05-09T06:04:00;100567.19;;;20.56;44.83
60212;BME280;46079;48.686;15.598;2023-05-09T06:06:25;100567.09;;;20.57;44.75
60212;BME280;46079;48.686;15.598;2023-05-09T06:08:51;100560.88;;;20.58;44.77
60212;BME280;46079;48.686;15.598;2023-05-09T06:11:17;100555.59;;;20.58;44.76
60212;BME280;46079;48.686;15.598;2023-05-09T06:13:42;100569.31;;;20.62;44.48
60212;BME280;46079;48.686;15.598;2023-05-09T06:16:08;100564.22;;;20.60;44.56
60212;BME280;46079;48.686;15.598;2023-05-09T06:18:36;100570.03;;;20.64;44.51
60212;BME280;46079;48.686;15.598;2023-05-09T06:21:05;100570.03;;;20.64;44.74
60212;BME280;46079;48.686;15.598;2023-05-09T06:23:30;100562.88;;;20.66;44.75
60212;BME280;46079;48.686;15.598;2023-05-09T06:25:56;100557.63;;;20.66;44.69
60212;BME280;46079;48.686;15.598;2023-05-09T06:28:21;100557.63;;;20.66;44.73
60212;BME280;46079;48.686;15.598;2023-05-09T06:30:47;100558.44;;;20.67;44.82
60212;BME280;46079;48.686;15.598;2023-05-09T06:33:12;100555.00;;;20.66;44.72
60212;BME280;46079;48.686;15.598;2023-05-09T06:35:38;100552.38;;;20.66;44.62
60212;BME280;46079;48.686;15.598;2023-05-09T06:38:03;100551.41;;;20.67;44.64
60212;BME280;46079;48.686;15.598;2023-05-09T06:40:28;100551.41;;;20.67;44.90
60212;BME280;46079;48.686;15.598;2023-05-09T06:42:54;100556.53;;;20.69;44.60
60212;BME280;46079;48.686;15.598;2023-05-09T06:45:19;100552.13;;;20.69;44.74
60212;BME280;46079;48.686;15.598;2023-05-09T06:47:45;100545.88;;;20.70;44.87
60212;BME280;46079;48.686;15.598;2023-05-09T06:50:10;100548.50;;;20.70;44.81
60212;BME280;46079;48.686;15.598;2023-05-09T06:52:36;100548.41;;;20.72;44.60
60212;BME280;46079;48.686;15.598;2023-05-09T06:55:01;100546.59;;;20.72;44.80
60212;BME280;46079;48.686;15.598;2023-05-09T06:57:27;100547.31;;;20.74;44.83
60212;BME280;46079;48.686;15.598;2023-05-09T06:59:52;100546.59;;;20.72;44.96
60212;BME280;46079;48.686;15.598;2023-05-09T07:02:18;100549.22;;;20.72;44.88
60212;BME280;46079;48.686;15.598;2023-05-09T07:04:43;100541.34;;;20.72;45.01
60212;BME280;46079;48.686;15.598;2023-05-09T07:07:08;100551.03;;;20.72;44.88
60212;BME280;46079;48.686;15.598;2023-05-09T07:09:34;100550.19;;;20.71;44.83
60212;BME280;46079;48.686;15.598;2023-05-09T07:12:08;100546.59;;;20.72;44.96
60212;BME280;46079;48.686;15.598;2023-05-09T07:14:34;100546.59;;;20.72;45.03
60212;BME280;46079;48.686;15.598;2023-05-09T07:16:59;100540.38;;;20.73;44.98
60212;BME280;46079;48.686;15.598;2023-05-09T07:19:25;100532.38;;;20.75;44.99
60212;BME280;46079;48.686;15.598;2023-05-09T07:21:50;100536.66;;;20.76;44.90
60212;BME280;46079;48.686;15.598;2023-05-09T07:24:16;100538.34;;;20.77;45.24
60212;BME280;46079;48.686;15.598;2023-05-09T07:26:41;100536.56;;;20.77;45.24
60212;BME280;46079;48.686;15.598;2023-05-09T07:29:07;100544.19;;;20.80;44.84
60212;BME280;46079;48.686;15.598;2023-05-09T07:31:32;100529.25;;;20.81;45.04
60212;BME280;46079;48.686;15.598;2023-05-09T07:33:57;100532.59;;;20.83;45.08
60212;BME280;46079;48.686;15.598;2023-05-09T07:36:23;100525.41;;;20.85;45.08
60212;BME280;46079;48.686;15.598;2023-05-09T07:38:48;100523.72;;;20.84;45.03
60212;BME280;46079;48.686;15.598;2023-05-09T07:41:16;100515.59;;;20.87;45.15
60212;BME280;46079;48.686;15.598;2023-05-09T07:43:41;100519.91;;;20.88;44.78
60212;BME280;46079;48.686;15.598;2023-05-09T07:46:07;100526.81;;;20.89;45.00
60212;BME280;46079;48.686;15.598;2023-05-09T07:48:32;100517.13;;;20.90;45.11
60212;BME280;46079;48.686;15.598;2023-05-09T07:50:58;100510.09;;;20.90;45.08
60212;BME280;46079;48.686;15.598;2023-05-09T07:53:23;100503.03;;;20.91;45.10
60212;BME280;46079;48.686;15.598;2023-05-09T07:55:49;100511.63;;;20.93;44.98
60212;BME280;46079;48.686;15.598;2023-05-09T07:58:15;100510.78;;;20.92;45.05
60212;BME280;46079;48.686;15.598;2023-05-09T08:00:41;100500.25;;;20.92;45.09
60212;BME280;46079;48.686;15.598;2023-05-09T08:03:07;100501.94;;;20.93;45.07
60212;BME280;46079;48.686;15.598;2023-05-09T08:05:32;100500.16;;;20.94;45.07
60212;BME280;46079;48.686;15.598;2023-05-09T08:07:58;100491.28;;;20.95;45.01
60212;BME280;46079;48.686;15.598;2023-05-09T08:10:24;100490.47;;;20.94;45.03
60212;BME280;46079;48.686;15.598;2023-05-09T08:12:51;100483.41;;;20.95;45.11
60212;BME280;46079;48.686;15.598;2023-05-09T08:15:16;100484.25;;;20.95;45.01
60212;BME280;46079;48.686;15.598;2023-05-09T08:17:42;100492.16;;;20.95;44.88
60212;BME280;46079;48.686;15.598;2023-05-09T08:20:16;100488.66;;;20.95;45.13
60212;BME280;46079;48.686;15.598;2023-05-09T08:22:42;100478.13;;;20.95;44.96
60212;BME280;46079;48.686;15.598;2023-05-09T08:25:08;100488.66;;;20.95;45.06
60212;BME280;46079;48.686;15.598;2023-05-09T08:27:33;100486.03;;;20.95;44.75
60212;BME280;46079;48.686;15.598;2023-05-09T08:29:58;100487.72;;;20.96;44.81
60212;BME280;46079;48.686;15.598;2023-05-09T08:32:24;100487.00;;;20.94;44.94
60212;BME280;46079;48.686;15.598;2023-05-09T08:34:49;100480.91;;;20.93;44.88
60212;BME280;46079;48.686;15.598;2023-05-09T08:37:15;100481.75;;;20.94;44.96
60212;BME280;46079;48.686;15.598;2023-05-09T08:39:41;100485.34;;;20.93;44.94
60212;BME280;46079;48.686;15.598;2023-05-09T08:42:07;100485.34;;;20.93;44.75
60212;BME280;46079;48.686;15.598;2023-05-09T08:44:33;100485.34;;;20.93;44.92
60212;BME280;46079;48.686;15.598;2023-05-09T08:47:01;100488.09;;;20.91;44.83
60212;BME280;46079;48.686;15.598;2023-05-09T08:49:27;100474.09;;;20.91;44.96
60212;BME280;46079;48.686;15.598;2023-05-09T08:51:54;100470.66;;;20.90;44.76
60212;BME280;46079;48.686;15.598;2023-05-09T08:54:21;100475.06;;;20.90;44.96
60212;BME280;46079;48.686;15.598;2023-05-09T08:56:47;100469.09;;;20.87;44.87
60212;BME280;46079;48.686;15.598;2023-05-09T08:59:13;100461.34;;;20.86;44.85
60212;BME280;46079;48.686;15.598;2023-05-09T09:01:39;100461.22;;;20.87;44.85
60212;BME280;46079;48.686;15.598;2023-05-09T09:04:06;100461.22;;;20.87;45.05
60212;BME280;46079;48.686;15.598;2023-05-09T09:06:35;100470.06;;;20.86;45.04
60212;BME280;46079;48.686;15.598;2023-05-09T09:09:02;100457.88;;;20.85;45.00
60212;BME280;46079;48.686;15.598;2023-05-09T09:11:30;100453.59;;;20.84;45.00
60212;BME280;46079;48.686;15.598;2023-05-09T09:14:01;100449.16;;;20.85;45.23
60212;BME280;46079;48.686;15.598;2023-05-09T09:16:30;100444.00;;;20.83;45.20
60212;BME280;46079;48.686;15.598;2023-05-09T09:18:57;100435.31;;;20.83;45.21
60212;BME280;46079;48.686;15.598;2023-05-09T09:21:23;100442.34;;;20.82;45.31
60212;BME280;46079;48.686;15.598;2023-05-09T09:23:49;100425.75;;;20.82;45.20
60212;BME280;46079;48.686;15.598;2023-05-09T09:26:14;100431.13;;;20.80;45.10
60212;BME280;46079;48.686;15.598;2023-05-09T09:28:41;100432.09;;;20.79;45.18
60212;BME280;46079;48.686;15.598;2023-05-09T09:31:26;100437.38;;;20.79;45.22
60212;BME280;46079;48.686;15.598;2023-05-09T09:34:01;100439.16;;;20.79;45.27
60212;BME280;46079;48.686;15.598;2023-05-09T09:36:27;100443.56;;;20.78;45.34
60212;BME280;46079;48.686;15.598;2023-05-09T09:39:00;100430.41;;;20.78;45.30
60212;BME280;46079;48.686;15.598;2023-05-09T09:41:36;100431.38;;;20.77;45.07
60212;BME280;46079;48.686;15.598;2023-05-09T09:44:10;100422.66;;;20.77;45.33
60212;BME280;46079;48.686;15.598;2023-05-09T09:46:53;100435.00;;;20.76;45.48
60212;BME280;46079;48.686;15.598;2023-05-09T09:49:21;100430.66;;;20.75;45.25
60212;BME280;46079;48.686;15.598;2023-05-09T09:51:50;100429.00;;;20.74;45.39
60212;BME280;46079;48.686;15.598;2023-05-09T09:54:16;100418.50;;;20.74;45.38
60212;BME280;46079;48.686;15.598;2023-05-09T09:56:44;100416.81;;;20.73;45.29
60212;BME280;46079;48.686;15.598;2023-05-09T10:04:29;100419.44;;;20.73;45.49
60212;BME280;46079;48.686;15.598;2023-05-09T10:07:00;100409.91;;;20.72;45.43
60212;BME280;46079;48.686;15.598;2023-05-09T10:09:27;100415.16;;;20.72;45.39
60212;BME280;46079;48.686;15.598;2023-05-09T10:11:54;100408.25;;;20.71;45.31
60212;BME280;46079;48.686;15.598;2023-05-09T10:14:22;100408.25;;;20.71;45.35
60212;BME280;46079;48.686;15.598;2023-05-09T10:16:50;100409.06;;;20.72;45.43
60212;BME280;46079;48.686;15.598;2023-05-09T10:19:20;100403.00;;;20.71;45.45
60212;BME280;46079;48.686;15.598;2023-05-09T10:21:56;100398.66;;;20.70;45.43
60212;BME280;46079;48.686;15.598;2023-05-09T10:27:05;100387.34;;;20.70;45.50
60212;BME280;46079;48.686;15.598;2023-05-09T10:29:35;100389.97;;;20.70;45.55
60212;BME280;46079;48.686;15.598;2023-05-09T10:32:08;100376.81;;;20.70;45.65
60212;BME280;46079;48.686;15.598;2023-05-09T10:34:39;100387.47;;;20.68;45.65
60212;BME280;46079;48.686;15.598;2023-05-09T10:37:07;100389.13;;;20.69;45.67
60212;BME280;46079;48.686;15.598;2023-05-09T10:39:33;100383.03;;;20.69;45.87
60212;BME280;46079;48.686;15.598;2023-05-09T10:41:59;100390.09;;;20.68;45.63
60212;BME280;46079;48.686;15.598;2023-05-09T10:44:25;100382.34;;;20.67;45.86
60212;BME280;46079;48.686;15.598;2023-05-09T10:46:50;100382.34;;;20.67;46.14
60212;BME280;46079;48.686;15.598;2023-05-09T10:49:17;100372.66;;;20.67;46.27
60212;BME280;46079;48.686;15.598;2023-05-09T10:51:43;100371.00;;;20.66;46.15
60212;BME280;46079;48.686;15.598;2023-05-09T10:54:24;100356.16;;;20.65;46.26
60212;BME280;46079;48.686;15.598;2023-05-09T10:56:51;100359.66;;;20.65;46.25
60212;BME280;46079;48.686;15.598;2023-05-09T10:59:32;100361.41;;;20.65;46.35
60212;BME280;46079;48.686;15.598;2023-05-09T11:01:58;100357.97;;;20.64;46.67
60212;BME280;46079;48.686;15.598;2023-05-09T11:04:27;100362.41;;;20.64;46.75
60212;BME280;46079;48.686;15.598;2023-05-09T11:06:53;100361.56;;;20.63;46.76
60212;BME280;46079;48.686;15.598;2023-05-09T11:09:31;100357.13;;;20.64;46.91
60212;BME280;46079;48.686;15.598;2023-05-09T11:12:00;100353.69;;;20.63;47.05
60212;BME280;46079;48.686;15.598;2023-05-09T11:16:59;100343.16;;;20.63;46.23
60212;BME280;46079;48.686;15.598;2023-05-09T11:19:35;100334.47;;;20.63;46.51
60212;BME280;46079;48.686;15.598;2023-05-09T11:22:10;100326.56;;;20.63;46.37
60212;BME280;46079;48.686;15.598;2023-05-09T11:24:37;100324.88;;;20.62;46.33
60212;BME280;46079;48.686;15.598;2023-05-09T11:27:13;100324.88;;;20.62;46.35
60212;BME280;46079;48.686;15.598;2023-05-09T11:29:42;100318.78;;;20.61;46.30
60212;BME280;46079;48.686;15.598;2023-05-09T11:32:12;100312.72;;;20.61;46.51
60212;BME280;46079;48.686;15.598;2023-05-09T11:34:41;100312.72;;;20.61;46.44
60212;BME280;46079;48.686;15.598;2023-05-09T11:37:15;100306.63;;;20.60;46.31
60212;BME280;46079;48.686;15.598;2023-05-09T11:40:00;100317.16;;;20.60;46.33
60212;BME280;46079;48.686;15.598;2023-05-09T11:42:27;100298.75;;;20.60;46.09
60212;BME280;46079;48.686;15.598;2023-05-09T11:44:54;100315.34;;;20.61;46.18
60212;BME280;46079;48.686;15.598;2023-05-09T11:47:20;100314.50;;;20.60;46.13
60212;BME280;46079;48.686;15.598;2023-05-09T11:49:47;100309.38;;;20.59;46.32
60212;BME280;46079;48.686;15.598;2023-05-09T11:52:13;100299.69;;;20.59;46.30
60212;BME280;46079;48.686;15.598;2023-05-09T11:54:39;100298.75;;;20.60;46.23
60212;BME280;46079;48.686;15.598;2023-05-09T11:57:05;100302.31;;;20.59;46.45
60212;BME280;46079;48.686;15.598;2023-05-09T11:59:34;100290.03;;;20.60;46.59
60212;BME280;46079;48.686;15.598;2023-05-09T12:02:04;100291.69;;;20.61;46.85
60212;BME280;46079;48.686;15.598;2023-05-09T12:04:30;100289.88;;;20.61;46.78
60212;BME280;46079;48.686;15.598;2023-05-09T12:06:59;100285.59;;;20.60;47.50
60212;BME280;46079;48.686;15.598;2023-05-09T12:09:28;100287.25;;;20.61;47.74
60212;BME280;46079;48.686;15.598;2023-05-09T12:11:54;100282.81;;;20.62;48.20
60212;BME280;46079;48.686;15.598;2023-05-09T12:14:30;100274.94;;;20.62;48.43
60212;BME280;46079;48.686;15.598;2023-05-09T12:16:55;100268.75;;;20.63;48.92
60212;BME280;46079;48.686;15.598;2023-05-09T12:19:25;100279.25;;;20.63;49.20
60212;BME280;46079;48.686;15.598;2023-05-09T12:21:58;100268.75;;;20.63;49.08
60212;BME280;46079;48.686;15.598;2023-05-09T12:24:25;100261.53;;;20.65;48.75
60212;BME280;46079;48.686;15.598;2023-05-09T12:26:57;100257.25;;;20.64;49.08
60212;BME280;46079;48.686;15.598;2023-05-09T12:29:23;100253.81;;;20.63;49.08
60212;BME280;46079;48.686;15.598;2023-05-09T12:31:49;100266.78;;;20.65;48.89
60212;BME280;46079;48.686;15.598;2023-05-09T12:34:16;100259.88;;;20.64;48.77
60212;BME280;46079;48.686;15.598;2023-05-09T12:36:45;100254.63;;;20.64;48.88
60212;BME280;46079;48.686;15.598;2023-05-09T12:39:18;100241.47;;;20.64;48.30
60212;BME280;46079;48.686;15.598;2023-05-09T12:41:48;100250.34;;;20.63;48.22
60212;BME280;46079;48.686;15.598;2023-05-09T12:44:21;100241.47;;;20.64;48.22
60212;BME280;46079;48.686;15.598;2023-05-09T12:47:07;100237.19;;;20.63;48.23
60212;BME280;46079;48.686;15.598;2023-05-09T12:49:36;100234.56;;;20.63;48.00
60212;BME280;46079;48.686;15.598;2023-05-09T12:52:02;100228.50;;;20.62;48.00
60212;BME280;46079;48.686;15.598;2023-05-09T12:54:28;100224.19;;;20.61;47.67